sensor_id;sensor_type;location;lat;lon;timestamp;P1;durP1;ratioP1;P2;durP2;ratioP2
51866;SDS011;52862;52.504;13.480;2023-12-07T00:02:03;47.03;;;23.13;;
51866;SDS011;52862;52.504;13.480;2023-12-07T00:04:31;52.87;;;24.37;;
51866;SDS011;52862;52.504;13.480;2023-12-07T00:06:58;43.23;;;22.23;;
51866;SDS011;52862;52.504;13.480;2023-12-07T00:09:24;53.00;;;23.90;;
51866;SDS011;52862;52.504;13.480;2023-12-07T00:11:51;41.83;;;21.63;;
51866;SDS011;52862;52.504;13.480;2023-12-07T00:14:18;44.07;;;22.53;;
51866;SDS011;52862;52.504;13.480;2023-12-07T00:16:45;49.13;;;23.10;;
51866;SDS011;52862;52.504;13.480;2023-12-07T00:19:12;53.77;;;23.57;;
51866;SDS011;52862;52.504;13.480;2023-12-07T00:21:39;46.10;;;22.53;;
51866;SDS011;52862;52.504;13.480;2023-12-07T00:24:06;50.57;;;21.67;;
51866;SDS011;52862;52.504;13.480;2023-12-07T00:26:33;49.20;;;23.67;;
51866;SDS011;52862;52.504;13.480;2023-12-07T00:29:00;51.90;;;22.73;;
51866;SDS011;52862;52.504;13.480;2023-12-07T00:31:27;47.03;;;23.17;;
51866;SDS011;52862;52.504;13.480;2023-12-07T00:33:54;48.10;;;23.20;;
51866;SDS011;52862;52.504;13.480;2023-12-07T00:36:21;48.33;;;23.53;;
51866;SDS011;52862;52.504;13.480;2023-12-07T00:38:48;46.83;;;24.57;;
51866;SDS011;52862;52.504;13.480;2023-12-07T00:41:15;46.13;;;24.60;;
51866;SDS011;52862;52.504;13.480;2023-12-07T00:43:41;48.37;;;23.87;;
51866;SDS011;52862;52.504;13.480;2023-12-07T00:46:08;56.03;;;24.27;;
51866;SDS011;52862;52.504;13.480;2023-12-07T00:48:35;51.70;;;24.37;;
51866;SDS011;52862;52.504;13.480;2023-12-07T00:51:02;53.40;;;25.10;;
51866;SDS011;52862;52.504;13.480;2023-12-07T00:53:29;47.43;;;24.00;;
51866;SDS011;52862;52.504;13.480;2023-12-07T00:55:56;53.03;;;24.73;;
51866;SDS011;52862;52.504;13.480;2023-12-07T00:58:22;53.70;;;24.50;;
51866;SDS011;52862;52.504;13.480;2023-12-07T01:00:49;53.63;;;25.23;;
51866;SDS011;52862;52.504;13.480;2023-12-07T01:03:17;45.93;;;23.27;;
51866;SDS011;52862;52.504;13.480;2023-12-07T01:05:44;50.63;;;25.77;;
51866;SDS011;52862;52.504;13.480;2023-12-07T01:08:11;58.90;;;25.97;;
51866;SDS011;52862;52.504;13.480;2023-12-07T01:10:38;49.30;;;25.27;;
51866;SDS011;52862;52.504;13.480;2023-12-07T01:13:05;50.20;;;24.17;;
51866;SDS011;52862;52.504;13.480;2023-12-07T01:15:31;58.30;;;26.00;;
51866;SDS011;52862;52.504;13.480;2023-12-07T01:17:58;48.43;;;25.10;;
51866;SDS011;52862;52.504;13.480;2023-12-07T01:20:25;51.57;;;25.10;;
51866;SDS011;52862;52.504;13.480;2023-12-07T01:22:52;51.73;;;24.23;;
51866;SDS011;52862;52.504;13.480;2023-12-07T01:25:19;48.73;;;23.47;;
51866;SDS011;52862;52.504;13.480;2023-12-07T01:27:47;45.87;;;23.67;;
51866;SDS011;52862;52.504;13.480;2023-12-07T01:30:14;41.27;;;21.70;;
51866;SDS011;52862;52.504;13.480;2023-12-07T01:32:42;48.30;;;23.67;;
51866;SDS011;52862;52.504;13.480;2023-12-07T01:35:08;48.17;;;23.33;;
51866;SDS011;52862;52.504;13.480;2023-12-07T01:37:35;48.50;;;23.03;;
51866;SDS011;52862;52.504;13.480;2023-12-07T01:40:04;46.97;;;23.30;;
51866;SDS011;52862;52.504;13.480;2023-12-07T01:42:36;46.97;;;23.67;;
51866;SDS011;52862;52.504;13.480;2023-12-07T01:45:03;44.57;;;22.63;;
51866;SDS011;52862;52.504;13.480;2023-12-07T01:47:30;48.80;;;23.83;;
51866;SDS011;52862;52.504;13.480;2023-12-07T01:49:59;44.70;;;23.37;;
51866;SDS011;52862;52.504;13.480;2023-12-07T01:52:30;49.63;;;25.43;;
51866;SDS011;52862;52.504;13.480;2023-12-07T01:54:57;47.13;;;22.73;;
51866;SDS011;52862;52.504;13.480;2023-12-07T01:57:25;44.73;;;22.50;;
51866;SDS011;52862;52.504;13.480;2023-12-07T01:59:51;53.93;;;24.03;;
51866;SDS011;52862;52.504;13.480;2023-12-07T02:02:18;60.57;;;24.90;;
51866;SDS011;52862;52.504;13.480;2023-12-07T02:04:45;49.70;;;24.77;;
51866;SDS011;52862;52.504;13.480;2023-12-07T02:07:12;53.43;;;25.73;;
51866;SDS011;52862;52.504;13.480;2023-12-07T02:09:39;52.20;;;24.63;;
51866;SDS011;52862;52.504;13.480;2023-12-07T02:12:06;50.23;;;24.03;;
51866;SDS011;52862;52.504;13.480;2023-12-07T02:14:34;52.97;;;25.00;;
51866;SDS011;52862;52.504;13.480;2023-12-07T02:17:01;59.57;;;26.50;;
51866;SDS011;52862;52.504;13.480;2023-12-07T02:19:52;45.80;;;23.03;;
51866;SDS011;52862;52.504;13.480;2023-12-07T02:22:25;48.50;;;23.47;;
51866;SDS011;52862;52.504;13.480;2023-12-07T02:24:59;54.60;;;24.00;;
51866;SDS011;52862;52.504;13.480;2023-12-07T02:27:37;45.93;;;23.30;;
51866;SDS011;52862;52.504;13.480;2023-12-07T02:30:05;49.03;;;24.63;;
51866;SDS011;52862;52.504;13.480;2023-12-07T02:32:34;50.47;;;24.37;;
51866;SDS011;52862;52.504;13.480;2023-12-07T02:35:01;50.47;;;24.00;;
51866;SDS011;52862;52.504;13.480;2023-12-07T02:37:30;50.23;;;22.03;;
51866;SDS011;52862;52.504;13.480;2023-12-07T02:40:00;52.63;;;24.73;;
51866;SDS011;52862;52.504;13.480;2023-12-07T02:42:29;56.17;;;23.70;;
51866;SDS011;52862;52.504;13.480;2023-12-07T02:44:58;45.53;;;22.77;;
51866;SDS011;52862;52.504;13.480;2023-12-07T02:47:26;50.50;;;24.33;;
51866;SDS011;52862;52.504;13.480;2023-12-07T02:49:53;48.70;;;23.60;;
51866;SDS011;52862;52.504;13.480;2023-12-07T02:52:20;46.50;;;22.97;;
51866;SDS011;52862;52.504;13.480;2023-12-07T02:54:47;53.40;;;24.67;;
51866;SDS011;52862;52.504;13.480;2023-12-07T02:57:14;48.73;;;24.17;;
51866;SDS011;52862;52.504;13.480;2023-12-07T02:59:41;52.90;;;23.97;;
51866;SDS011;52862;52.504;13.480;2023-12-07T03:02:08;49.27;;;25.23;;
51866;SDS011;52862;52.504;13.480;2023-12-07T03:04:35;61.63;;;26.40;;
51866;SDS011;52862;52.504;13.480;2023-12-07T03:07:01;48.27;;;25.03;;
51866;SDS011;52862;52.504;13.480;2023-12-07T03:09:29;47.60;;;23.87;;
51866;SDS011;52862;52.504;13.480;2023-12-07T03:11:55;46.13;;;24.03;;
51866;SDS011;52862;52.504;13.480;2023-12-07T03:14:22;50.50;;;25.00;;
51866;SDS011;52862;52.504;13.480;2023-12-07T03:16:49;45.40;;;22.30;;
51866;SDS011;52862;52.504;13.480;2023-12-07T03:19:16;43.37;;;22.67;;
51866;SDS011;52862;52.504;13.480;2023-12-07T03:21:43;45.00;;;23.17;;
51866;SDS011;52862;52.504;13.480;2023-12-07T03:24:10;50.60;;;24.40;;
51866;SDS011;52862;52.504;13.480;2023-12-07T03:26:37;46.97;;;23.80;;
51866;SDS011;52862;52.504;13.480;2023-12-07T03:29:04;46.47;;;24.10;;
51866;SDS011;52862;52.504;13.480;2023-12-07T03:31:31;50.53;;;25.30;;
51866;SDS011;52862;52.504;13.480;2023-12-07T03:33:58;47.73;;;22.10;;
51866;SDS011;52862;52.504;13.480;2023-12-07T03:36:27;50.13;;;24.30;;
51866;SDS011;52862;52.504;13.480;2023-12-07T03:38:56;58.50;;;23.30;;
51866;SDS011;52862;52.504;13.480;2023-12-07T03:41:23;42.40;;;21.37;;
51866;SDS011;52862;52.504;13.480;2023-12-07T03:43:50;50.00;;;24.00;;
51866;SDS011;52862;52.504;13.480;2023-12-07T03:46:16;54.63;;;24.67;;
51866;SDS011;52862;52.504;13.480;2023-12-07T03:48:43;46.13;;;23.63;;
51866;SDS011;52862;52.504;13.480;2023-12-07T03:51:12;51.40;;;24.93;;
51866;SDS011;52862;52.504;13.480;2023-12-07T03:53:40;49.43;;;24.30;;
51866;SDS011;52862;52.504;13.480;2023-12-07T03:56:07;52.00;;;25.07;;
51866;SDS011;52862;52.504;13.480;2023-12-07T03:58:34;60.33;;;25.37;;
51866;SDS011;52862;52.504;13.480;2023-12-07T04:01:01;51.67;;;25.30;;
51866;SDS011;52862;52.504;13.480;2023-12-07T04:03:28;51.10;;;24.13;;
51866;SDS011;52862;52.504;13.480;2023-12-07T04:05:55;46.43;;;23.87;;
51866;SDS011;52862;52.504;13.480;2023-12-07T04:08:21;45.30;;;24.33;;
51866;SDS011;52862;52.504;13.480;2023-12-07T04:10:49;49.93;;;24.83;;
51866;SDS011;52862;52.504;13.480;2023-12-07T04:13:15;53.10;;;26.73;;
51866;SDS011;52862;52.504;13.480;2023-12-07T04:15:42;46.93;;;24.20;;
51866;SDS011;52862;52.504;13.480;2023-12-07T04:18:09;49.63;;;24.53;;
51866;SDS011;52862;52.504;13.480;2023-12-07T04:20:35;51.10;;;24.20;;
51866;SDS011;52862;52.504;13.480;2023-12-07T04:23:02;46.87;;;23.93;;
51866;SDS011;52862;52.504;13.480;2023-12-07T04:25:29;51.80;;;26.13;;
51866;SDS011;52862;52.504;13.480;2023-12-07T04:27:56;46.10;;;24.33;;
51866;SDS011;52862;52.504;13.480;2023-12-07T04:30:23;51.07;;;24.33;;
51866;SDS011;52862;52.504;13.480;2023-12-07T04:32:49;51.53;;;26.10;;
51866;SDS011;52862;52.504;13.480;2023-12-07T04:35:16;52.03;;;25.40;;
51866;SDS011;52862;52.504;13.480;2023-12-07T04:37:43;57.07;;;26.73;;
51866;SDS011;52862;52.504;13.480;2023-12-07T04:40:10;55.47;;;26.30;;
51866;SDS011;52862;52.504;13.480;2023-12-07T04:42:37;66.37;;;28.63;;
51866;SDS011;52862;52.504;13.480;2023-12-07T04:45:05;67.97;;;29.67;;
51866;SDS011;52862;52.504;13.480;2023-12-07T04:47:33;57.57;;;27.00;;
51866;SDS011;52862;52.504;13.480;2023-12-07T04:49:59;61.03;;;27.90;;
51866;SDS011;52862;52.504;13.480;2023-12-07T04:52:26;66.90;;;29.53;;
51866;SDS011;52862;52.504;13.480;2023-12-07T04:54:53;61.20;;;23.53;;
51866;SDS011;52862;52.504;13.480;2023-12-07T04:57:20;62.43;;;26.30;;
51866;SDS011;52862;52.504;13.480;2023-12-07T04:59:46;66.00;;;28.07;;
51866;SDS011;52862;52.504;13.480;2023-12-07T05:02:15;70.90;;;28.73;;
51866;SDS011;52862;52.504;13.480;2023-12-07T05:04:42;66.53;;;27.30;;
51866;SDS011;52862;52.504;13.480;2023-12-07T05:07:09;62.57;;;25.97;;
51866;SDS011;52862;52.504;13.480;2023-12-07T05:09:35;58.17;;;26.07;;
51866;SDS011;52862;52.504;13.480;2023-12-07T05:12:02;69.10;;;28.13;;
51866;SDS011;52862;52.504;13.480;2023-12-07T05:14:30;67.93;;;29.80;;
51866;SDS011;52862;52.504;13.480;2023-12-07T05:16:57;67.87;;;27.83;;
51866;SDS011;52862;52.504;13.480;2023-12-07T05:19:24;66.27;;;27.67;;
51866;SDS011;52862;52.504;13.480;2023-12-07T05:21:51;68.00;;;26.77;;
51866;SDS011;52862;52.504;13.480;2023-12-07T05:24:18;67.83;;;27.63;;
51866;SDS011;52862;52.504;13.480;2023-12-07T05:26:45;63.00;;;27.00;;
51866;SDS011;52862;52.504;13.480;2023-12-07T05:29:12;67.73;;;27.47;;
51866;SDS011;52862;52.504;13.480;2023-12-07T05:31:39;68.37;;;28.77;;
51866;SDS011;52862;52.504;13.480;2023-12-07T05:34:06;66.17;;;27.10;;
51866;SDS011;52862;52.504;13.480;2023-12-07T05:36:34;60.77;;;27.47;;
51866;SDS011;52862;52.504;13.480;2023-12-07T05:39:01;61.17;;;26.23;;
51866;SDS011;52862;52.504;13.480;2023-12-07T05:41:28;56.87;;;25.20;;
51866;SDS011;52862;52.504;13.480;2023-12-07T05:43:54;63.00;;;26.60;;
51866;SDS011;52862;52.504;13.480;2023-12-07T05:46:21;63.43;;;27.43;;
51866;SDS011;52862;52.504;13.480;2023-12-07T05:48:48;67.23;;;28.53;;
51866;SDS011;52862;52.504;13.480;2023-12-07T05:51:17;65.83;;;26.87;;
51866;SDS011;52862;52.504;13.480;2023-12-07T05:53:44;67.57;;;27.87;;
51866;SDS011;52862;52.504;13.480;2023-12-07T05:56:11;67.90;;;27.30;;
51866;SDS011;52862;52.504;13.480;2023-12-07T05:58:38;63.77;;;26.77;;
51866;SDS011;52862;52.504;13.480;2023-12-07T06:01:05;66.73;;;26.73;;
51866;SDS011;52862;52.504;13.480;2023-12-07T06:03:33;61.10;;;27.37;;
51866;SDS011;52862;52.504;13.480;2023-12-07T06:06:01;60.50;;;26.83;;
51866;SDS011;52862;52.504;13.480;2023-12-07T06:08:28;66.10;;;27.60;;
51866;SDS011;52862;52.504;13.480;2023-12-07T06:10:55;63.50;;;27.07;;
51866;SDS011;52862;52.504;13.480;2023-12-07T06:13:22;64.57;;;27.80;;
51866;SDS011;52862;52.504;13.480;2023-12-07T06:15:49;64.10;;;25.00;;
51866;SDS011;52862;52.504;13.480;2023-12-07T06:18:16;73.57;;;28.63;;
51866;SDS011;52862;52.504;13.480;2023-12-07T06:20:44;64.53;;;29.17;;
51866;SDS011;52862;52.504;13.480;2023-12-07T06:23:11;65.83;;;27.63;;
51866;SDS011;52862;52.504;13.480;2023-12-07T06:25:38;64.63;;;26.63;;
51866;SDS011;52862;52.504;13.480;2023-12-07T06:28:06;66.17;;;28.07;;
51866;SDS011;52862;52.504;13.480;2023-12-07T06:30:32;71.03;;;27.63;;
51866;SDS011;52862;52.504;13.480;2023-12-07T06:33:00;67.70;;;28.00;;
51866;SDS011;52862;52.504;13.480;2023-12-07T06:35:26;68.83;;;26.67;;
51866;SDS011;52862;52.504;13.480;2023-12-07T06:37:53;68.80;;;27.03;;
51866;SDS011;52862;52.504;13.480;2023-12-07T06:40:20;72.43;;;29.13;;
51866;SDS011;52862;52.504;13.480;2023-12-07T06:42:47;64.10;;;27.87;;
51866;SDS011;52862;52.504;13.480;2023-12-07T06:45:14;68.90;;;27.87;;
51866;SDS011;52862;52.504;13.480;2023-12-07T06:47:42;69.27;;;27.83;;
51866;SDS011;52862;52.504;13.480;2023-12-07T06:50:09;69.83;;;28.33;;
51866;SDS011;52862;52.504;13.480;2023-12-07T06:52:36;73.33;;;28.87;;
51866;SDS011;52862;52.504;13.480;2023-12-07T06:55:04;70.90;;;27.83;;
51866;SDS011;52862;52.504;13.480;2023-12-07T06:57:32;67.10;;;27.87;;
51866;SDS011;52862;52.504;13.480;2023-12-07T06:59:59;65.80;;;27.90;;
51866;SDS011;52862;52.504;13.480;2023-12-07T07:02:27;68.77;;;27.50;;
51866;SDS011;52862;52.504;13.480;2023-12-07T07:04:54;71.50;;;27.57;;
51866;SDS011;52862;52.504;13.480;2023-12-07T07:07:21;74.90;;;28.77;;
51866;SDS011;52862;52.504;13.480;2023-12-07T07:09:48;69.57;;;26.47;;
51866;SDS011;52862;52.504;13.480;2023-12-07T07:12:15;72.13;;;28.37;;
51866;SDS011;52862;52.504;13.480;2023-12-07T07:14:42;73.73;;;27.30;;
51866;SDS011;52862;52.504;13.480;2023-12-07T07:17:09;71.70;;;27.33;;
51866;SDS011;52862;52.504;13.480;2023-12-07T07:19:36;64.40;;;24.47;;
51866;SDS011;52862;52.504;13.480;2023-12-07T07:22:03;70.03;;;27.13;;
51866;SDS011;52862;52.504;13.480;2023-12-07T07:24:30;66.93;;;26.67;;
51866;SDS011;52862;52.504;13.480;2023-12-07T07:26:57;68.17;;;27.50;;
51866;SDS011;52862;52.504;13.480;2023-12-07T07:29:24;66.73;;;24.97;;
51866;SDS011;52862;52.504;13.480;2023-12-07T07:31:53;69.93;;;27.50;;
51866;SDS011;52862;52.504;13.480;2023-12-07T07:34:21;62.47;;;25.07;;
51866;SDS011;52862;52.504;13.480;2023-12-07T07:36:48;68.03;;;25.67;;
51866;SDS011;52862;52.504;13.480;2023-12-07T07:39:16;60.70;;;22.40;;
51866;SDS011;52862;52.504;13.480;2023-12-07T07:41:42;60.80;;;27.10;;
51866;SDS011;52862;52.504;13.480;2023-12-07T07:44:09;64.37;;;26.03;;
51866;SDS011;52862;52.504;13.480;2023-12-07T07:46:36;59.53;;;24.90;;
51866;SDS011;52862;52.504;13.480;2023-12-07T07:49:03;63.77;;;24.47;;
51866;SDS011;52862;52.504;13.480;2023-12-07T07:51:30;62.17;;;23.27;;
51866;SDS011;52862;52.504;13.480;2023-12-07T07:53:58;69.40;;;25.03;;
51866;SDS011;52862;52.504;13.480;2023-12-07T07:56:25;65.57;;;25.93;;
51866;SDS011;52862;52.504;13.480;2023-12-07T07:58:52;63.23;;;25.43;;
51866;SDS011;52862;52.504;13.480;2023-12-07T08:01:19;66.13;;;27.03;;
51866;SDS011;52862;52.504;13.480;2023-12-07T08:03:46;69.70;;;29.77;;
51866;SDS011;52862;52.504;13.480;2023-12-07T08:06:13;62.93;;;24.83;;
51866;SDS011;52862;52.504;13.480;2023-12-07T08:08:40;62.17;;;25.77;;
51866;SDS011;52862;52.504;13.480;2023-12-07T08:11:08;71.83;;;26.30;;
51866;SDS011;52862;52.504;13.480;2023-12-07T08:13:34;64.20;;;26.17;;
51866;SDS011;52862;52.504;13.480;2023-12-07T08:16:01;65.53;;;26.27;;
51866;SDS011;52862;52.504;13.480;2023-12-07T08:18:28;66.10;;;24.67;;
51866;SDS011;52862;52.504;13.480;2023-12-07T08:20:55;74.80;;;25.70;;
51866;SDS011;52862;52.504;13.480;2023-12-07T08:23:23;64.87;;;25.57;;
51866;SDS011;52862;52.504;13.480;2023-12-07T08:25:50;67.87;;;25.63;;
51866;SDS011;52862;52.504;13.480;2023-12-07T08:28:17;58.57;;;23.67;;
51866;SDS011;52862;52.504;13.480;2023-12-07T08:30:44;69.63;;;25.97;;
51866;SDS011;52862;52.504;13.480;2023-12-07T08:33:11;65.53;;;24.90;;
51866;SDS011;52862;52.504;13.480;2023-12-07T08:35:38;57.00;;;23.47;;
51866;SDS011;52862;52.504;13.480;2023-12-07T08:38:04;69.63;;;25.60;;
51866;SDS011;52862;52.504;13.480;2023-12-07T08:40:31;66.00;;;24.90;;
51866;SDS011;52862;52.504;13.480;2023-12-07T08:42:58;61.17;;;26.13;;
51866;SDS011;52862;52.504;13.480;2023-12-07T08:45:26;68.50;;;25.67;;
51866;SDS011;52862;52.504;13.480;2023-12-07T08:47:53;81.17;;;27.73;;
51866;SDS011;52862;52.504;13.480;2023-12-07T08:50:20;63.23;;;25.93;;
51866;SDS011;52862;52.504;13.480;2023-12-07T08:52:47;62.13;;;25.73;;
51866;SDS011;52862;52.504;13.480;2023-12-07T08:55:22;64.13;;;26.17;;
51866;SDS011;52862;52.504;13.480;2023-12-07T08:57:48;65.47;;;26.70;;
51866;SDS011;52862;52.504;13.480;2023-12-07T09:00:15;76.67;;;28.30;;
51866;SDS011;52862;52.504;13.480;2023-12-07T09:02:44;70.63;;;28.03;;
51866;SDS011;52862;52.504;13.480;2023-12-07T09:05:14;51.53;;;22.87;;
51866;SDS011;52862;52.504;13.480;2023-12-07T09:07:41;66.23;;;27.00;;
51866;SDS011;52862;52.504;13.480;2023-12-07T09:10:09;66.87;;;23.83;;
51866;SDS011;52862;52.504;13.480;2023-12-07T09:12:36;59.87;;;25.40;;
51866;SDS011;52862;52.504;13.480;2023-12-07T09:15:05;60.07;;;23.90;;
51866;SDS011;52862;52.504;13.480;2023-12-07T09:17:33;61.27;;;25.87;;
51866;SDS011;52862;52.504;13.480;2023-12-07T09:20:01;62.70;;;25.10;;
51866;SDS011;52862;52.504;13.480;2023-12-07T09:22:28;60.80;;;25.57;;
51866;SDS011;52862;52.504;13.480;2023-12-07T09:25:03;70.80;;;27.13;;
51866;SDS011;52862;52.504;13.480;2023-12-07T09:27:30;52.13;;;22.90;;
51866;SDS011;52862;52.504;13.480;2023-12-07T09:29:58;65.23;;;25.03;;
51866;SDS011;52862;52.504;13.480;2023-12-07T09:32:25;61.83;;;24.47;;
51866;SDS011;52862;52.504;13.480;2023-12-07T09:35:03;60.20;;;23.67;;
51866;SDS011;52862;52.504;13.480;2023-12-07T09:37:30;64.63;;;26.37;;
51866;SDS011;52862;52.504;13.480;2023-12-07T09:39:57;59.10;;;24.73;;
51866;SDS011;52862;52.504;13.480;2023-12-07T09:42:25;59.50;;;24.27;;
51866;SDS011;52862;52.504;13.480;2023-12-07T09:45:01;58.10;;;24.93;;
51866;SDS011;52862;52.504;13.480;2023-12-07T09:47:28;61.70;;;24.43;;
51866;SDS011;52862;52.504;13.480;2023-12-07T09:50:04;62.23;;;24.77;;
51866;SDS011;52862;52.504;13.480;2023-12-07T09:52:34;62.67;;;23.73;;
51866;SDS011;52862;52.504;13.480;2023-12-07T09:55:01;51.77;;;24.17;;
51866;SDS011;52862;52.504;13.480;2023-12-07T09:57:29;51.60;;;21.30;;
51866;SDS011;52862;52.504;13.480;2023-12-07T09:59:57;59.80;;;24.33;;
51866;SDS011;52862;52.504;13.480;2023-12-07T10:02:24;59.63;;;22.73;;
51866;SDS011;52862;52.504;13.480;2023-12-07T10:05:02;47.20;;;19.17;;
51866;SDS011;52862;52.504;13.480;2023-12-07T10:07:32;48.27;;;19.23;;
51866;SDS011;52862;52.504;13.480;2023-12-07T10:10:00;45.10;;;19.77;;
51866;SDS011;52862;52.504;13.480;2023-12-07T10:12:29;46.03;;;20.47;;
51866;SDS011;52862;52.504;13.480;2023-12-07T10:14:55;47.23;;;19.63;;
51866;SDS011;52862;52.504;13.480;2023-12-07T10:17:22;51.63;;;17.97;;
51866;SDS011;52862;52.504;13.480;2023-12-07T10:22:34;50.87;;;19.43;;
51866;SDS011;52862;52.504;13.480;2023-12-07T10:25:01;53.37;;;22.20;;
51866;SDS011;52862;52.504;13.480;2023-12-07T10:27:29;53.63;;;21.87;;
51866;SDS011;52862;52.504;13.480;2023-12-07T10:29:58;47.23;;;20.30;;
51866;SDS011;52862;52.504;13.480;2023-12-07T10:32:25;50.40;;;20.40;;
51866;SDS011;52862;52.504;13.480;2023-12-07T10:34:52;52.07;;;20.27;;
51866;SDS011;52862;52.504;13.480;2023-12-07T10:37:22;54.73;;;21.17;;
51866;SDS011;52862;52.504;13.480;2023-12-07T10:39:50;56.07;;;21.00;;
51866;SDS011;52862;52.504;13.480;2023-12-07T10:42:16;50.50;;;22.13;;
51866;SDS011;52862;52.504;13.480;2023-12-07T10:44:50;57.97;;;24.07;;
51866;SDS011;52862;52.504;13.480;2023-12-07T10:47:18;63.80;;;22.43;;
51866;SDS011;52862;52.504;13.480;2023-12-07T10:49:48;62.07;;;21.60;;
51866;SDS011;52862;52.504;13.480;2023-12-07T10:52:21;53.17;;;22.53;;
51866;SDS011;52862;52.504;13.480;2023-12-07T10:54:53;54.80;;;21.93;;
51866;SDS011;52862;52.504;13.480;2023-12-07T10:57:27;57.13;;;23.37;;
51866;SDS011;52862;52.504;13.480;2023-12-07T10:59:54;59.33;;;22.90;;
51866;SDS011;52862;52.504;13.480;2023-12-07T11:02:23;65.77;;;23.93;;
51866;SDS011;52862;52.504;13.480;2023-12-07T11:04:52;60.27;;;23.40;;
51866;SDS011;52862;52.504;13.480;2023-12-07T11:07:22;62.90;;;25.87;;
51866;SDS011;52862;52.504;13.480;2023-12-07T11:09:53;59.03;;;23.43;;
51866;SDS011;52862;52.504;13.480;2023-12-07T11:12:29;58.60;;;24.67;;
51866;SDS011;52862;52.504;13.480;2023-12-07T11:15:01;58.77;;;25.30;;
51866;SDS011;52862;52.504;13.480;2023-12-07T11:17:28;62.47;;;24.00;;
51866;SDS011;52862;52.504;13.480;2023-12-07T11:19:55;67.03;;;23.47;;
51866;SDS011;52862;52.504;13.480;2023-12-07T11:22:23;66.50;;;25.70;;
51866;SDS011;52862;52.504;13.480;2023-12-07T11:24:53;63.97;;;24.57;;
51866;SDS011;52862;52.504;13.480;2023-12-07T11:27:21;54.57;;;23.13;;
51866;SDS011;52862;52.504;13.480;2023-12-07T11:29:48;69.60;;;26.33;;
51866;SDS011;52862;52.504;13.480;2023-12-07T11:32:16;59.27;;;24.10;;
51866;SDS011;52862;52.504;13.480;2023-12-07T11:34:53;61.33;;;24.90;;
51866;SDS011;52862;52.504;13.480;2023-12-07T11:37:20;61.97;;;25.73;;
51866;SDS011;52862;52.504;13.480;2023-12-07T11:39:47;86.17;;;27.47;;
51866;SDS011;52862;52.504;13.480;2023-12-07T11:42:16;76.67;;;27.87;;
51866;SDS011;52862;52.504;13.480;2023-12-07T11:44:47;72.07;;;25.93;;
51866;SDS011;52862;52.504;13.480;2023-12-07T11:47:15;63.67;;;25.97;;
51866;SDS011;52862;52.504;13.480;2023-12-07T11:49:44;58.07;;;24.83;;
51866;SDS011;52862;52.504;13.480;2023-12-07T11:52:14;49.17;;;21.20;;
51866;SDS011;52862;52.504;13.480;2023-12-07T11:54:43;49.97;;;21.33;;
51866;SDS011;52862;52.504;13.480;2023-12-07T11:57:10;57.07;;;22.57;;
51866;SDS011;52862;52.504;13.480;2023-12-07T11:59:38;56.13;;;23.20;;
51866;SDS011;52862;52.504;13.480;2023-12-07T12:02:05;60.10;;;23.87;;
51866;SDS011;52862;52.504;13.480;2023-12-07T12:04:31;58.03;;;23.23;;
51866;SDS011;52862;52.504;13.480;2023-12-07T12:06:58;60.17;;;24.63;;
51866;SDS011;52862;52.504;13.480;2023-12-07T12:09:25;64.20;;;25.80;;
51866;SDS011;52862;52.504;13.480;2023-12-07T12:11:58;56.40;;;24.33;;
51866;SDS011;52862;52.504;13.480;2023-12-07T12:14:26;62.30;;;24.63;;
51866;SDS011;52862;52.504;13.480;2023-12-07T12:16:54;54.30;;;23.87;;
51866;SDS011;52862;52.504;13.480;2023-12-07T12:19:22;57.67;;;24.17;;
51866;SDS011;52862;52.504;13.480;2023-12-07T12:22:00;58.63;;;25.03;;
51866;SDS011;52862;52.504;13.480;2023-12-07T12:24:30;59.23;;;25.77;;
51866;SDS011;52862;52.504;13.480;2023-12-07T12:26:57;58.83;;;24.30;;
51866;SDS011;52862;52.504;13.480;2023-12-07T12:29:25;67.73;;;25.27;;
51866;SDS011;52862;52.504;13.480;2023-12-07T12:32:00;62.80;;;25.90;;
51866;SDS011;52862;52.504;13.480;2023-12-07T12:34:27;61.83;;;24.57;;
51866;SDS011;52862;52.504;13.480;2023-12-07T12:36:55;68.43;;;25.70;;
51866;SDS011;52862;52.504;13.480;2023-12-07T12:39:26;65.77;;;25.57;;
51866;SDS011;52862;52.504;13.480;2023-12-07T12:41:59;56.50;;;24.43;;
51866;SDS011;52862;52.504;13.480;2023-12-07T12:44:27;53.33;;;24.13;;
51866;SDS011;52862;52.504;13.480;2023-12-07T12:47:04;63.13;;;26.30;;
51866;SDS011;52862;52.504;13.480;2023-12-07T12:49:36;66.40;;;27.80;;
51866;SDS011;52862;52.504;13.480;2023-12-07T12:52:05;68.93;;;26.60;;
51866;SDS011;52862;52.504;13.480;2023-12-07T12:54:36;73.47;;;28.80;;
51866;SDS011;52862;52.504;13.480;2023-12-07T12:57:02;74.37;;;28.60;;
51866;SDS011;52862;52.504;13.480;2023-12-07T12:59:32;69.83;;;30.57;;
51866;SDS011;52862;52.504;13.480;2023-12-07T13:01:59;74.77;;;29.07;;
51866;SDS011;52862;52.504;13.480;2023-12-07T13:04:26;76.97;;;30.33;;
51866;SDS011;52862;52.504;13.480;2023-12-07T13:06:53;81.57;;;32.27;;
51866;SDS011;52862;52.504;13.480;2023-12-07T13:09:20;90.40;;;33.17;;
51866;SDS011;52862;52.504;13.480;2023-12-07T13:11:47;87.33;;;35.37;;
51866;SDS011;52862;52.504;13.480;2023-12-07T13:14:14;87.60;;;33.40;;
51866;SDS011;52862;52.504;13.480;2023-12-07T13:16:42;82.40;;;34.20;;
51866;SDS011;52862;52.504;13.480;2023-12-07T13:19:09;87.63;;;35.63;;
51866;SDS011;52862;52.504;13.480;2023-12-07T13:21:37;78.93;;;33.67;;
51866;SDS011;52862;52.504;13.480;2023-12-07T13:24:04;92.70;;;34.77;;
51866;SDS011;52862;52.504;13.480;2023-12-07T13:26:33;81.50;;;33.27;;
51866;SDS011;52862;52.504;13.480;2023-12-07T13:29:00;81.70;;;35.23;;
51866;SDS011;52862;52.504;13.480;2023-12-07T13:31:26;82.43;;;34.53;;
51866;SDS011;52862;52.504;13.480;2023-12-07T13:33:53;83.70;;;38.47;;
51866;SDS011;52862;52.504;13.480;2023-12-07T13:36:25;88.83;;;36.97;;
51866;SDS011;52862;52.504;13.480;2023-12-07T13:38:55;101.27;;;37.13;;
51866;SDS011;52862;52.504;13.480;2023-12-07T13:41:22;91.77;;;36.97;;
51866;SDS011;52862;52.504;13.480;2023-12-07T13:43:49;86.97;;;36.50;;
51866;SDS011;52862;52.504;13.480;2023-12-07T13:46:16;97.20;;;37.03;;
51866;SDS011;52862;52.504;13.480;2023-12-07T13:48:43;87.47;;;36.60;;
51866;SDS011;52862;52.504;13.480;2023-12-07T13:51:10;97.00;;;37.70;;
51866;SDS011;52862;52.504;13.480;2023-12-07T13:53:38;91.57;;;37.07;;
51866;SDS011;52862;52.504;13.480;2023-12-07T13:56:05;100.13;;;38.70;;
51866;SDS011;52862;52.504;13.480;2023-12-07T13:58:33;93.20;;;36.87;;
51866;SDS011;52862;52.504;13.480;2023-12-07T14:01:00;92.83;;;38.00;;
51866;SDS011;52862;52.504;13.480;2023-12-07T14:03:27;102.73;;;39.03;;
51866;SDS011;52862;52.504;13.480;2023-12-07T14:05:54;97.70;;;37.63;;
51866;SDS011;52862;52.504;13.480;2023-12-07T14:08:21;110.53;;;40.30;;
51866;SDS011;52862;52.504;13.480;2023-12-07T14:10:48;99.40;;;37.90;;
51866;SDS011;52862;52.504;13.480;2023-12-07T14:13:16;103.70;;;39.07;;
51866;SDS011;52862;52.504;13.480;2023-12-07T14:15:43;102.10;;;41.43;;